createdAt,value
2019-02-17T00:01:07.987Z,14.33
2019-02-17T00:02:40.345Z,12.67
2019-02-17T00:04:12.833Z,11.57
2019-02-17T00:05:45.230Z,9.77
2019-02-17T00:07:17.566Z,11.53
2019-02-17T00:08:49.989Z,10.37
2019-02-17T00:10:22.387Z,9.73
2019-02-17T00:11:54.725Z,11.03
2019-02-17T00:13:27.222Z,10.43
2019-02-17T00:14:59.556Z,8.07
2019-02-17T00:16:31.882Z,10.10
2019-02-17T00:18:04.286Z,8.17
2019-02-17T00:19:36.639Z,8.93
2019-02-17T00:21:09.048Z,9.47
2019-02-17T00:22:41.375Z,10.43
2019-02-17T00:24:13.809Z,12.27
2019-02-17T00:25:46.152Z,9.97
2019-02-17T00:27:18.560Z,9.43
2019-02-17T00:28:59.177Z,8.20
2019-02-17T00:30:25.029Z,15.43
2019-02-17T00:31:57.497Z,9.07
2019-02-17T00:33:29.963Z,9.07
2019-02-17T00:35:02.327Z,7.60
2019-02-17T00:36:34.799Z,9.03
2019-02-17T00:38:08.092Z,8.67
2019-02-17T00:39:40.550Z,6.67
2019-02-17T00:41:12.975Z,6.10
2019-02-17T00:42:45.379Z,9.23
2019-02-17T00:44:17.774Z,8.23
2019-02-17T00:45:50.196Z,10.53
2019-02-17T00:47:22.602Z,9.57
2019-02-17T00:48:55.005Z,12.00
2019-02-17T00:50:27.418Z,7.20
2019-02-17T00:51:59.836Z,8.17
2019-02-17T00:53:32.248Z,8.37
2019-02-17T00:55:04.654Z,9.03
2019-02-17T00:56:37.159Z,10.67
2019-02-17T00:58:09.505Z,8.00
2019-02-17T00:59:41.911Z,7.07
2019-02-17T01:01:14.408Z,10.57
2019-02-17T01:02:46.750Z,7.63
2019-02-17T01:04:19.150Z,9.67
2019-02-17T01:05:51.621Z,10.07
2019-02-17T01:07:23.970Z,8.27
2019-02-17T01:08:56.393Z,10.60
2019-02-17T01:10:28.791Z,11.13
2019-02-17T01:12:01.331Z,9.13
2019-02-17T01:13:33.790Z,10.00
2019-02-17T01:15:06.293Z,12.20
2019-02-17T01:16:38.823Z,11.70
2019-02-17T01:18:29.848Z,9.43
2019-02-17T01:20:21.208Z,8.40
2019-02-17T01:22:01.577Z,7.23
2019-02-17T01:23:34.094Z,9.50
2019-02-17T01:25:06.493Z,10.00
2019-02-17T01:26:38.828Z,15.10
2019-02-17T01:28:29.871Z,7.53
2019-02-17T01:30:20.947Z,10.80
2019-02-17T01:32:01.298Z,8.27
2019-02-17T01:33:33.714Z,8.07
2019-02-17T01:35:06.118Z,11.73
2019-02-17T01:36:38.462Z,9.83
2019-02-17T01:38:10.874Z,9.53
2019-02-17T01:39:43.283Z,10.63
2019-02-17T01:41:15.619Z,12.10
2019-02-17T01:42:47.945Z,8.87
2019-02-17T01:44:20.374Z,8.87
2019-02-17T01:45:52.701Z,9.27
2019-02-17T01:47:25.042Z,14.13
2019-02-17T01:48:57.480Z,10.10
2019-02-17T01:50:29.885Z,14.57
2019-02-17T01:52:02.218Z,9.27
2019-02-17T01:53:34.909Z,9.63
2019-02-17T01:55:07.263Z,9.43
2019-02-17T01:56:39.727Z,8.70
2019-02-17T01:58:12.146Z,7.70
2019-02-17T01:59:44.551Z,8.17
2019-02-17T02:01:17.257Z,8.77
2019-02-17T02:02:49.722Z,8.67
2019-02-17T02:04:22.094Z,10.43
2019-02-17T02:05:54.569Z,8.67
2019-02-17T02:07:27.040Z,8.03
2019-02-17T02:08:59.459Z,8.50
2019-02-17T02:10:31.871Z,8.83
2019-02-17T02:12:04.266Z,7.77
2019-02-17T02:13:36.608Z,10.40
2019-02-17T02:15:09.100Z,9.40
2019-02-17T02:16:41.591Z,9.03
2019-02-17T02:18:13.927Z,8.57
2019-02-17T02:19:46.328Z,9.27
2019-02-17T02:21:18.751Z,10.13
2019-02-17T02:22:51.259Z,7.67
2019-02-17T02:24:23.665Z,12.10
2019-02-17T02:25:56.030Z,9.70
2019-02-17T02:27:28.355Z,7.13
2019-02-17T02:29:00.761Z,7.93
2019-02-17T02:30:33.105Z,10.87
2019-02-17T02:32:05.528Z,11.37
2019-02-17T02:33:37.939Z,10.03
2019-02-17T02:35:10.407Z,8.10
2019-02-17T02:36:42.759Z,10.23
2019-02-17T02:38:15.532Z,14.70
2019-02-17T02:39:47.934Z,9.03
2019-02-17T02:41:20.370Z,8.43
2019-02-17T02:42:52.880Z,6.80
2019-02-17T02:44:25.355Z,9.57
2019-02-17T02:45:57.740Z,5.27
2019-02-17T02:47:30.160Z,5.77
2019-02-17T02:49:02.638Z,5.10
2019-02-17T02:50:42.847Z,6.70
2019-02-17T02:52:15.257Z,5.37
2019-02-17T02:53:47.584Z,4.17
2019-02-17T02:55:19.908Z,4.73
2019-02-17T02:56:52.347Z,6.23
2019-02-17T02:58:24.805Z,6.47
2019-02-17T02:59:57.206Z,8.73
2019-02-17T03:01:29.624Z,4.93
2019-02-17T03:03:02.050Z,7.83
2019-02-17T03:04:34.386Z,5.47
2019-02-17T03:06:06.722Z,5.90
2019-02-17T03:07:39.141Z,5.10
2019-02-17T03:09:11.496Z,8.80
2019-02-17T03:10:43.980Z,6.07
2019-02-17T03:12:16.389Z,3.73
2019-02-17T03:13:48.829Z,5.43
2019-02-17T03:15:21.216Z,3.87
2019-02-17T03:16:53.688Z,3.37
2019-02-17T03:18:26.032Z,4.23
2019-02-17T03:19:58.434Z,4.40
2019-02-17T03:21:30.761Z,4.30
2019-02-17T03:23:03.102Z,4.63
2019-02-17T03:24:35.836Z,3.50
2019-02-17T03:26:08.161Z,5.57
2019-02-17T03:27:40.485Z,3.67
2019-02-17T03:29:12.912Z,3.73
2019-02-17T03:30:45.387Z,4.30
2019-02-17T03:32:17.802Z,5.03
2019-02-17T03:33:50.280Z,3.97
2019-02-17T03:35:22.687Z,3.53
2019-02-17T03:36:55.018Z,4.37
2019-02-17T03:38:27.590Z,4.63
2019-02-17T03:40:00.021Z,2.83
2019-02-17T03:41:32.491Z,4.20
2019-02-17T03:43:04.890Z,3.97
2019-02-17T03:44:37.393Z,4.43
2019-02-17T03:46:09.804Z,4.23
2019-02-17T03:47:42.226Z,3.30
2019-02-17T03:49:14.640Z,7.20
2019-02-17T03:50:47.073Z,3.90
2019-02-17T03:52:19.539Z,3.53
2019-02-17T03:53:51.865Z,4.40
2019-02-17T03:55:24.307Z,3.60
2019-02-17T03:56:56.723Z,5.60
2019-02-17T03:58:29.195Z,4.13
2019-02-17T04:00:01.541Z,3.37
2019-02-17T04:01:34.030Z,3.57
2019-02-17T04:03:06.496Z,5.10
2019-02-17T04:04:38.906Z,5.20
2019-02-17T04:06:11.315Z,4.80
2019-02-17T04:07:43.725Z,6.07
2019-02-17T04:09:16.130Z,6.50
2019-02-17T04:10:48.573Z,5.73
2019-02-17T04:12:20.966Z,3.97
2019-02-17T04:13:53.399Z,5.37
2019-02-17T04:17:22.703Z,5.27
2019-02-17T04:18:55.103Z,4.13
2019-02-17T04:20:27.875Z,3.83
2019-02-17T04:22:00.221Z,4.93
2019-02-17T04:23:32.687Z,4.33
2019-02-17T04:25:05.082Z,6.03
2019-02-17T04:26:37.442Z,3.70
2019-02-17T04:28:09.910Z,7.80
2019-02-17T04:29:42.380Z,3.00
2019-02-17T04:31:14.711Z,3.77
2019-02-17T04:32:47.143Z,3.47
2019-02-17T04:34:19.546Z,3.33
2019-02-17T04:35:51.878Z,3.70
2019-02-17T04:37:24.307Z,3.30
2019-02-17T04:38:56.744Z,2.80
2019-02-17T04:40:29.132Z,3.60
2019-02-17T04:42:01.591Z,2.90
2019-02-17T04:43:34.175Z,4.17
2019-02-17T04:45:06.592Z,2.93
2019-02-17T04:46:38.919Z,5.53
2019-02-17T04:48:11.402Z,10.03
2019-02-17T04:49:43.813Z,3.47
2019-02-17T04:51:16.215Z,4.27
2019-02-17T04:52:48.630Z,4.03
2019-02-17T04:54:20.955Z,3.53
2019-02-17T04:55:53.354Z,2.33
2019-02-17T04:57:25.751Z,2.90
2019-02-17T04:58:58.104Z,3.57
2019-02-17T05:00:39.881Z,3.20
2019-02-17T05:02:04.655Z,3.30
2019-02-17T05:03:37.082Z,5.60
2019-02-17T05:05:09.547Z,5.53
2019-02-17T05:06:42.019Z,3.63
2019-02-17T05:08:14.498Z,2.93
2019-02-17T05:09:46.999Z,4.63
2019-02-17T05:11:19.396Z,5.63
2019-02-17T05:12:51.732Z,4.50
2019-02-17T05:14:24.206Z,2.87
2019-02-17T05:15:56.610Z,3.03
2019-02-17T05:17:29.014Z,6.87
2019-02-17T05:19:01.359Z,3.83
2019-02-17T05:20:33.860Z,2.67
2019-02-17T05:22:06.247Z,5.50
2019-02-17T05:23:38.660Z,2.67
2019-02-17T05:25:11.039Z,3.03
2019-02-17T05:26:43.507Z,2.33
2019-02-17T05:28:15.834Z,4.97
2019-02-17T05:29:48.339Z,2.93
2019-02-17T05:31:20.747Z,3.43
2019-02-17T05:32:53.135Z,2.60
2019-02-17T05:34:25.557Z,6.53
2019-02-17T05:35:57.976Z,5.13
2019-02-17T05:37:30.439Z,3.53
2019-02-17T05:39:02.902Z,4.90
2019-02-17T05:40:36.553Z,2.30
2019-02-17T05:42:09.266Z,2.27
2019-02-17T05:43:41.720Z,2.80
2019-02-17T05:45:14.131Z,2.17
2019-02-17T05:46:46.459Z,4.33
2019-02-17T05:48:18.945Z,2.33
2019-02-17T05:49:51.339Z,2.90
2019-02-17T05:51:23.695Z,2.53
2019-02-17T05:52:56.163Z,1.97
2019-02-17T05:54:28.570Z,2.10
2019-02-17T05:56:00.978Z,4.17
2019-02-17T05:57:33.374Z,2.57
2019-02-17T05:59:05.707Z,1.97
2019-02-17T06:00:38.199Z,2.97
2019-02-17T06:02:10.535Z,1.90
2019-02-17T06:03:42.867Z,2.23
2019-02-17T06:05:15.279Z,2.27
2019-02-17T06:06:47.697Z,4.70
2019-02-17T06:08:20.108Z,2.17
2019-02-17T06:09:52.590Z,3.73
2019-02-17T06:11:25.077Z,6.07
2019-02-17T06:12:57.486Z,2.43
2019-02-17T06:14:29.959Z,5.53
2019-02-17T06:16:02.370Z,3.33
2019-02-17T06:17:34.843Z,1.63
2019-02-17T06:19:07.243Z,4.07
2019-02-17T06:20:39.708Z,4.57
2019-02-17T06:22:12.072Z,2.17
2019-02-17T06:23:44.462Z,2.70
2019-02-17T06:25:16.955Z,2.90
2019-02-17T06:26:49.370Z,1.87
2019-02-17T06:28:21.760Z,1.97
2019-02-17T06:29:54.171Z,3.33
2019-02-17T06:31:26.590Z,3.13
2019-02-17T06:32:58.987Z,5.20
2019-02-17T06:34:31.319Z,3.03
2019-02-17T06:36:03.666Z,2.73
2019-02-17T06:37:36.063Z,5.10
2019-02-17T06:39:08.485Z,2.80
2019-02-17T06:40:40.882Z,6.77
2019-02-17T06:42:13.303Z,4.70
2019-02-17T06:43:45.715Z,4.87
2019-02-17T06:45:19.789Z,5.50
2019-02-17T06:46:52.337Z,2.83
2019-02-17T06:48:24.812Z,4.17
2019-02-17T06:49:57.139Z,1.93
2019-02-17T06:51:31.022Z,1.70
2019-02-17T06:53:03.581Z,2.40
2019-02-17T06:54:35.907Z,2.87
2019-02-17T06:56:09.116Z,1.57
2019-02-17T06:57:41.615Z,1.87
2019-02-17T06:59:14.012Z,1.97
2019-02-17T07:00:46.438Z,1.97
2019-02-17T07:02:18.894Z,1.43
2019-02-17T07:03:51.315Z,1.57
2019-02-17T07:05:23.771Z,2.33
2019-02-17T07:06:56.944Z,1.90
2019-02-17T07:08:29.497Z,4.80
2019-02-17T07:10:01.958Z,2.57
2019-02-17T07:11:34.426Z,1.97
2019-02-17T07:13:06.766Z,2.00
2019-02-17T07:14:39.154Z,2.07
2019-02-17T07:16:11.563Z,2.47
2019-02-17T07:17:43.987Z,2.70
2019-02-17T07:19:16.463Z,3.33
2019-02-17T07:20:48.859Z,7.40
2019-02-17T07:22:21.231Z,4.50
2019-02-17T07:23:53.637Z,4.20
2019-02-17T07:25:29.965Z,3.13
2019-02-17T07:27:00.059Z,3.07
2019-02-17T07:28:32.567Z,2.30
2019-02-17T07:30:05.068Z,2.00
2019-02-17T07:31:37.791Z,2.43
2019-02-17T07:33:14.014Z,1.87
2019-02-17T07:34:46.350Z,2.23
2019-02-17T07:36:18.930Z,4.00
2019-02-17T07:37:51.546Z,2.60
2019-02-17T07:39:24.100Z,3.03
2019-02-17T07:40:56.567Z,2.97
2019-02-17T07:42:29.035Z,5.13
2019-02-17T07:44:01.567Z,1.87
2019-02-17T07:45:34.043Z,3.53
2019-02-17T07:47:06.514Z,2.70
2019-02-17T07:48:38.935Z,2.30
2019-02-17T07:50:11.439Z,2.33
2019-02-17T07:51:44.011Z,4.40
2019-02-17T07:53:16.607Z,4.03
2019-02-17T07:54:48.946Z,1.67
2019-02-17T07:56:21.347Z,1.50
2019-02-17T07:57:53.919Z,1.67
2019-02-17T07:59:26.338Z,1.73
2019-02-17T08:00:59.363Z,2.30
2019-02-17T08:02:31.701Z,3.70
2019-02-17T08:04:04.200Z,2.40
2019-02-17T08:05:36.708Z,1.90
2019-02-17T08:07:09.195Z,2.13
2019-02-17T08:08:41.599Z,5.97
2019-02-17T08:10:14.082Z,2.30
2019-02-17T08:11:46.500Z,4.50
2019-02-17T08:13:19.026Z,2.63
2019-02-17T08:14:51.520Z,3.60
2019-02-17T08:16:24.008Z,3.70
2019-02-17T08:17:56.431Z,1.53
2019-02-17T08:19:28.916Z,3.00
2019-02-17T08:21:01.385Z,2.07
2019-02-17T08:22:33.775Z,2.40
2019-02-17T08:24:06.171Z,3.83
2019-02-17T08:25:38.596Z,2.90
2019-02-17T08:27:11.011Z,1.63
2019-02-17T08:28:43.383Z,3.70
2019-02-17T08:30:15.755Z,2.27
2019-02-17T08:31:55.530Z,2.63
2019-02-17T08:33:22.238Z,1.90
2019-02-17T08:34:54.715Z,1.90
2019-02-17T08:36:27.142Z,4.30
2019-02-17T08:37:59.547Z,1.57
2019-02-17T08:39:31.949Z,1.50
2019-02-17T08:41:04.746Z,2.57
2019-02-17T08:42:37.218Z,1.67
2019-02-17T08:44:09.690Z,1.70
2019-02-17T08:45:42.098Z,1.67
2019-02-17T08:47:14.513Z,1.63
2019-02-17T08:48:46.987Z,1.87
2019-02-17T08:50:20.036Z,2.20
2019-02-17T08:51:52.644Z,1.83
2019-02-17T08:53:25.119Z,2.63
2019-02-17T08:54:57.441Z,2.80
2019-02-17T08:56:29.924Z,6.47
2019-02-17T08:58:02.683Z,2.80
2019-02-17T08:59:35.102Z,1.53
2019-02-17T09:01:07.507Z,2.80
2019-02-17T09:02:40.837Z,1.50
2019-02-17T09:04:13.410Z,1.87
2019-02-17T09:05:45.743Z,3.40
2019-02-17T09:07:18.160Z,2.23
2019-02-17T09:08:50.514Z,1.63
2019-02-17T09:10:22.987Z,1.20
2019-02-17T09:11:55.387Z,3.53
2019-02-17T09:13:27.879Z,1.93
2019-02-17T09:15:00.345Z,2.77
2019-02-17T09:16:32.823Z,3.63
2019-02-17T09:18:05.170Z,2.40
2019-02-17T09:19:37.562Z,1.00
2019-02-17T09:21:09.891Z,1.43
2019-02-17T09:22:42.306Z,2.90
2019-02-17T09:24:14.707Z,9.00
2019-02-17T09:25:47.179Z,4.70
2019-02-17T09:27:19.509Z,2.87
2019-02-17T09:28:51.859Z,2.70
2019-02-17T09:30:24.254Z,2.07
2019-02-17T09:31:56.589Z,3.43
2019-02-17T09:33:29.011Z,3.20
2019-02-17T09:35:01.480Z,2.33
2019-02-17T09:36:33.902Z,2.40
2019-02-17T09:38:06.478Z,3.63
2019-02-17T09:39:38.923Z,4.37
2019-02-17T09:41:11.333Z,3.63
2019-02-17T09:42:43.822Z,2.83
2019-02-17T09:44:16.251Z,6.73
2019-02-17T09:45:48.622Z,2.73
2019-02-17T09:47:21.023Z,3.90
2019-02-17T09:48:55.691Z,5.40
2019-02-17T09:50:27.611Z,1.90
2019-02-17T09:52:00.044Z,2.43
2019-02-17T09:53:32.451Z,3.50
2019-02-17T09:55:04.817Z,4.33
2019-02-17T09:56:37.326Z,3.00
2019-02-17T09:58:10.016Z,1.40
2019-02-17T09:59:42.435Z,2.70
2019-02-17T10:01:14.843Z,3.40
2019-02-17T10:02:47.254Z,1.87
2019-02-17T10:04:19.599Z,0.80
2019-02-17T10:05:52.042Z,1.20
2019-02-17T10:07:24.629Z,1.20
2019-02-17T10:08:57.120Z,0.70
2019-02-17T10:10:29.558Z,3.63
2019-02-17T10:12:02.095Z,3.37
2019-02-17T10:13:34.520Z,4.20
2019-02-17T10:15:07.025Z,2.90
2019-02-17T10:16:39.460Z,5.57
2019-02-17T10:18:11.862Z,1.77
2019-02-17T10:19:44.479Z,1.90
2019-02-17T10:21:16.914Z,1.27
2019-02-17T10:22:49.347Z,2.13
2019-02-17T10:24:21.774Z,2.60
2019-02-17T10:25:56.405Z,2.10
2019-02-17T10:27:28.311Z,1.47
2019-02-17T10:29:00.716Z,1.10
2019-02-17T10:30:33.165Z,2.50
2019-02-17T10:32:05.567Z,2.43
2019-02-17T10:33:39.154Z,1.80
2019-02-17T10:35:11.593Z,2.37
2019-02-17T10:36:44.103Z,1.73
2019-02-17T10:38:16.443Z,1.27
2019-02-17T10:39:48.863Z,3.23
2019-02-17T10:41:21.317Z,1.27
2019-02-17T10:42:54.200Z,1.03
2019-02-17T10:44:27.768Z,1.60
2019-02-17T10:46:00.304Z,1.43
2019-02-17T10:47:32.782Z,1.40
2019-02-17T10:49:05.178Z,1.13
2019-02-17T10:50:37.506Z,1.97
2019-02-17T10:52:09.914Z,2.83
2019-02-17T10:53:42.431Z,1.43
2019-02-17T10:55:14.836Z,1.70
2019-02-17T10:56:47.625Z,4.30
2019-02-17T10:58:20.333Z,2.10
2019-02-17T10:59:52.719Z,2.93
2019-02-17T11:01:25.212Z,2.03
2019-02-17T11:02:57.720Z,3.67
2019-02-17T11:04:30.062Z,4.40
2019-02-17T11:06:02.550Z,1.93
2019-02-17T11:07:35.055Z,3.93
2019-02-17T11:09:07.495Z,1.77
2019-02-17T11:10:39.910Z,2.57
2019-02-17T11:12:12.390Z,0.90
2019-02-17T11:13:44.862Z,1.17
2019-02-17T11:15:17.478Z,2.33
2019-02-17T11:16:49.931Z,1.60
2019-02-17T11:18:22.431Z,3.57
2019-02-17T11:19:54.927Z,1.27
2019-02-17T11:21:27.276Z,2.10
2019-02-17T11:22:59.716Z,1.67
2019-02-17T11:24:32.114Z,1.13
2019-02-17T11:26:04.669Z,1.70
2019-02-17T11:27:37.008Z,0.93
2019-02-17T11:29:09.419Z,0.90
2019-02-17T11:30:41.907Z,1.73
2019-02-17T11:32:14.309Z,1.13
2019-02-17T11:33:46.704Z,1.12
2019-02-17T11:35:19.133Z,1.22
2019-02-17T11:36:51.534Z,2.10
2019-02-17T11:38:23.945Z,0.95
2019-02-17T11:39:56.437Z,1.32
2019-02-17T11:41:28.857Z,0.90
2019-02-17T11:43:01.263Z,2.55
2019-02-17T11:44:33.743Z,1.92
2019-02-17T11:46:06.108Z,3.25
2019-02-17T11:47:38.518Z,3.47
2019-02-17T11:49:10.993Z,2.67
2019-02-17T11:50:43.340Z,2.02
2019-02-17T11:52:15.775Z,1.47
2019-02-17T11:53:48.342Z,2.10
2019-02-17T11:55:22.758Z,3.62
2019-02-17T11:56:54.800Z,1.75
2019-02-17T11:58:27.218Z,0.90
2019-02-17T11:59:59.624Z,1.27
2019-02-17T12:01:31.990Z,1.22
2019-02-17T12:03:07.909Z,1.00
2019-02-17T12:04:38.372Z,1.70
2019-02-17T12:06:10.791Z,1.37
2019-02-17T12:07:43.274Z,1.47
2019-02-17T12:09:15.694Z,1.80
2019-02-17T12:10:48.169Z,1.98
2019-02-17T12:12:20.678Z,1.45
2019-02-17T12:13:53.083Z,1.77
2019-02-17T12:15:25.492Z,2.98
2019-02-17T12:16:57.998Z,2.27
2019-02-17T12:18:30.383Z,1.67
2019-02-17T12:20:02.781Z,1.67
2019-02-17T12:21:35.610Z,1.45
2019-02-17T12:23:08.270Z,3.25
2019-02-17T12:24:40.943Z,1.10
2019-02-17T12:26:13.427Z,1.12
2019-02-17T12:27:45.875Z,1.87
2019-02-17T12:29:18.526Z,2.35
2019-02-17T12:30:50.992Z,6.28
2019-02-17T12:32:23.418Z,1.80
2019-02-17T12:33:56.169Z,4.00
2019-02-17T12:35:28.686Z,2.17
2019-02-17T12:37:01.019Z,3.95
2019-02-17T12:38:33.442Z,1.37
2019-02-17T12:40:05.918Z,2.37
2019-02-17T12:41:38.590Z,1.80
2019-02-17T12:43:11.107Z,2.65
2019-02-17T12:44:43.511Z,3.55
2019-02-17T12:46:15.901Z,1.12
2019-02-17T12:47:57.532Z,1.30
2019-02-17T12:49:22.502Z,1.12
2019-02-17T12:50:54.844Z,2.75
2019-02-17T12:52:27.323Z,1.02
2019-02-17T12:53:59.753Z,1.02
2019-02-17T12:55:32.182Z,1.00
2019-02-17T12:57:04.865Z,0.95
2019-02-17T12:58:37.373Z,1.25
2019-02-17T13:00:09.799Z,1.98
2019-02-17T13:01:42.221Z,1.85
2019-02-17T13:03:14.887Z,1.27
2019-02-17T13:04:47.395Z,1.30
2019-02-17T13:06:19.851Z,1.15
2019-02-17T13:07:52.292Z,2.95
2019-02-17T13:09:24.712Z,2.55
2019-02-17T13:10:57.190Z,3.95
2019-02-17T13:12:29.806Z,3.33
2019-02-17T13:14:02.236Z,2.45
2019-02-17T13:15:34.861Z,3.25
2019-02-17T13:17:07.310Z,2.35
2019-02-17T13:18:39.655Z,3.15
2019-02-17T13:20:11.987Z,1.77
2019-02-17T13:21:44.446Z,2.83
2019-02-17T13:23:16.849Z,4.62
2019-02-17T13:24:49.334Z,2.47
2019-02-17T13:26:21.754Z,2.15
2019-02-17T13:27:54.101Z,5.72
2019-02-17T13:29:26.569Z,2.10
2019-02-17T13:30:59.071Z,3.92
2019-02-17T13:32:31.423Z,4.05
2019-02-17T13:34:03.826Z,4.08
2019-02-17T13:35:36.431Z,3.37
2019-02-17T13:37:08.811Z,2.95
2019-02-17T13:38:41.286Z,1.92
2019-02-17T13:40:13.770Z,1.87
2019-02-17T13:41:46.107Z,1.87
2019-02-17T13:43:18.701Z,2.22
2019-02-17T13:44:51.159Z,2.85
2019-02-17T13:46:23.482Z,1.70
2019-02-17T13:47:55.902Z,1.20
2019-02-17T13:49:28.385Z,1.95
2019-02-17T13:51:00.738Z,0.93
2019-02-17T13:52:33.093Z,3.70
2019-02-17T13:54:05.602Z,1.45
2019-02-17T13:55:38.015Z,1.60
2019-02-17T13:57:10.474Z,2.20
2019-02-17T13:58:42.906Z,1.47
2019-02-17T14:00:15.247Z,2.02
2019-02-17T14:01:47.768Z,3.65
2019-02-17T14:03:20.246Z,2.15
2019-02-17T14:04:52.586Z,1.87
2019-02-17T14:06:24.983Z,1.87
2019-02-17T14:07:57.386Z,1.02
2019-02-17T14:09:29.815Z,4.03
2019-02-17T14:11:02.219Z,2.50
2019-02-17T14:12:34.630Z,1.85
2019-02-17T14:14:07.043Z,1.77
2019-02-17T14:15:39.451Z,1.90
2019-02-17T14:17:11.864Z,2.65
2019-02-17T14:18:44.320Z,1.27
2019-02-17T14:20:16.759Z,2.95
2019-02-17T14:21:49.227Z,1.50
2019-02-17T14:23:21.589Z,2.10
2019-02-17T14:24:54.183Z,4.12
2019-02-17T14:26:26.578Z,1.27
2019-02-17T14:27:58.911Z,3.42
2019-02-17T14:29:31.338Z,1.12
2019-02-17T14:31:03.927Z,1.10
2019-02-17T14:32:36.264Z,1.75
2019-02-17T14:34:08.759Z,1.52
2019-02-17T14:35:41.358Z,1.42
2019-02-17T14:37:13.790Z,1.27
2019-02-17T14:38:46.192Z,1.87
2019-02-17T14:40:18.690Z,2.15
2019-02-17T14:41:51.092Z,1.85
2019-02-17T14:43:23.797Z,3.12
2019-02-17T14:44:56.259Z,2.47
2019-02-17T14:46:28.635Z,1.80
2019-02-17T14:48:01.034Z,2.77
2019-02-17T14:49:33.366Z,2.83
2019-02-17T14:51:05.716Z,2.65
2019-02-17T14:52:38.125Z,1.42
2019-02-17T14:54:10.605Z,1.52
2019-02-17T14:55:43.003Z,1.82
2019-02-17T14:57:15.423Z,2.87
2019-02-17T14:58:47.763Z,1.98
2019-02-17T15:00:20.171Z,2.70
2019-02-17T15:01:52.611Z,3.55
2019-02-17T15:03:24.954Z,2.15
2019-02-17T15:04:57.531Z,3.12
2019-02-17T15:06:29.984Z,2.00
2019-02-17T15:08:02.486Z,4.12
2019-02-17T15:09:34.888Z,3.22
2019-02-17T15:11:07.287Z,2.75
2019-02-17T15:12:39.715Z,3.02
2019-02-17T15:14:12.114Z,1.77
2019-02-17T15:15:44.578Z,3.87
2019-02-17T15:17:17.572Z,2.55
2019-02-17T15:18:49.984Z,2.47
2019-02-17T15:20:22.390Z,3.40
2019-02-17T15:21:54.855Z,3.35
2019-02-17T15:23:27.198Z,2.90
2019-02-17T15:24:59.601Z,2.60
2019-02-17T15:26:32.011Z,1.95
2019-02-17T15:28:04.585Z,1.40
2019-02-17T15:29:38.569Z,5.17
2019-02-17T15:31:12.752Z,5.10
2019-02-17T15:32:48.110Z,2.55
2019-02-17T15:34:38.871Z,3.90
2019-02-17T15:36:13.608Z,4.30
2019-02-17T15:37:46.013Z,2.70
2019-02-17T15:39:18.431Z,3.10
2019-02-17T15:40:50.760Z,3.08
2019-02-17T15:42:23.174Z,2.35
2019-02-17T15:43:55.529Z,2.72
2019-02-17T15:45:27.944Z,4.45
2019-02-17T15:47:00.387Z,7.20
2019-02-17T15:48:32.726Z,3.47
2019-02-17T15:50:05.083Z,3.30
2019-02-17T15:51:37.479Z,3.47
2019-02-17T15:53:09.891Z,3.22
2019-02-17T15:54:42.243Z,3.15
2019-02-17T15:56:14.648Z,3.27
2019-02-17T15:57:48.972Z,4.70
2019-02-17T15:59:21.150Z,2.62
2019-02-17T16:00:53.587Z,3.85
2019-02-17T16:02:25.991Z,2.50
2019-02-17T16:03:58.392Z,2.98
2019-02-17T16:05:30.811Z,5.15
2019-02-17T16:07:03.209Z,2.65
2019-02-17T16:08:35.530Z,2.10
2019-02-17T16:10:07.951Z,2.95
2019-02-17T16:11:40.358Z,5.95
2019-02-17T16:13:13.734Z,3.45
2019-02-17T16:14:46.154Z,2.80
2019-02-17T16:16:18.550Z,1.75
2019-02-17T16:17:50.915Z,3.70
2019-02-17T16:19:23.380Z,3.37
2019-02-17T16:20:55.795Z,2.15
2019-02-17T16:22:28.131Z,3.77
2019-02-17T16:24:00.545Z,4.60
2019-02-17T16:25:33.012Z,3.33
2019-02-17T16:27:05.342Z,2.72
2019-02-17T16:28:37.818Z,3.00
2019-02-17T16:30:10.146Z,8.10
2019-02-17T16:31:42.497Z,3.22
2019-02-17T16:33:15.166Z,5.67
2019-02-17T16:34:47.591Z,4.42
2019-02-17T16:36:20.036Z,3.63
2019-02-17T16:37:59.777Z,2.90
2019-02-17T16:39:27.584Z,6.58
2019-02-17T16:41:03.468Z,7.17
2019-02-17T16:42:36.433Z,4.53
2019-02-17T16:44:08.915Z,4.00
2019-02-17T16:45:41.336Z,3.10
2019-02-17T16:47:13.869Z,4.80
2019-02-17T16:48:46.291Z,3.90
2019-02-17T16:50:18.709Z,4.95
2019-02-17T16:51:51.235Z,4.17
2019-02-17T16:53:23.832Z,3.40
2019-02-17T16:54:56.252Z,6.97
2019-02-17T16:56:28.794Z,4.60
2019-02-17T16:58:01.527Z,3.93
2019-02-17T16:59:34.020Z,4.15
2019-02-17T17:01:06.515Z,4.20
2019-02-17T17:02:39.024Z,2.87
2019-02-17T17:04:11.565Z,3.30
2019-02-17T17:05:44.136Z,5.70
2019-02-17T17:07:16.557Z,4.23
2019-02-17T17:08:49.059Z,6.73
2019-02-17T17:10:24.136Z,4.60
2019-02-17T17:12:01.626Z,4.60
2019-02-17T17:13:44.814Z,3.27
2019-02-17T17:15:29.120Z,4.03
2019-02-17T17:17:04.485Z,3.90
2019-02-17T17:18:42.904Z,5.17
2019-02-17T17:20:20.777Z,4.53
2019-02-17T17:21:57.690Z,4.03
2019-02-17T17:23:33.665Z,4.87
2019-02-17T17:25:06.505Z,5.63
2019-02-17T17:26:43.991Z,4.67
2019-02-17T17:28:19.358Z,5.10
2019-02-17T17:29:57.590Z,7.53
2019-02-17T17:31:33.371Z,5.57
2019-02-17T17:33:06.522Z,6.73
2019-02-17T17:34:58.555Z,4.40
2019-02-17T17:36:30.839Z,6.90
2019-02-17T17:38:03.327Z,6.13
2019-02-17T17:39:36.051Z,9.30
2019-02-17T17:41:11.205Z,7.47
2019-02-17T17:42:43.869Z,8.37
2019-02-17T17:44:16.299Z,6.73
2019-02-17T17:45:48.738Z,4.57
2019-02-17T17:47:21.203Z,5.50
2019-02-17T17:48:53.679Z,8.87
2019-02-17T17:50:26.103Z,5.03
2019-02-17T17:51:58.595Z,6.23
2019-02-17T17:53:31.184Z,8.57
2019-02-17T17:55:03.711Z,6.30
2019-02-17T17:56:36.142Z,9.93
2019-02-17T17:58:08.579Z,7.77
2019-02-17T17:59:41.003Z,9.10
2019-02-17T18:01:13.500Z,7.63
2019-02-17T18:02:45.996Z,8.03
2019-02-17T18:04:18.423Z,7.57
2019-02-17T18:05:50.851Z,9.37
2019-02-17T18:07:23.504Z,9.70
2019-02-17T18:08:55.875Z,8.93
2019-02-17T18:10:28.320Z,9.63
2019-02-17T18:12:00.931Z,15.03
2019-02-17T18:13:33.346Z,16.07
2019-02-17T18:15:05.843Z,14.70
2019-02-17T18:16:38.404Z,15.87
2019-02-17T18:18:10.783Z,10.70
2019-02-17T18:19:43.680Z,13.70
2019-02-17T18:21:16.031Z,16.50
2019-02-17T18:22:48.437Z,12.23
2019-02-17T18:24:23.781Z,14.00
2019-02-17T18:25:56.263Z,13.87
2019-02-17T18:27:28.709Z,12.47
2019-02-17T18:29:01.132Z,14.93
2019-02-17T18:30:33.621Z,14.70
2019-02-17T18:32:05.983Z,12.87
2019-02-17T18:33:38.467Z,17.40
2019-02-17T18:35:19.145Z,15.73
2019-02-17T18:36:45.043Z,14.43
2019-02-17T18:38:17.483Z,18.37
2019-02-17T18:39:49.971Z,16.10
2019-02-17T18:41:22.402Z,13.70
2019-02-17T18:42:54.839Z,14.80
2019-02-17T18:44:27.315Z,15.87
2019-02-17T18:45:59.739Z,15.30
2019-02-17T18:47:32.184Z,14.10
2019-02-17T18:49:04.603Z,14.67
2019-02-17T18:50:36.964Z,13.60
2019-02-17T18:52:09.470Z,13.23
2019-02-17T18:53:46.403Z,12.20
2019-02-17T18:55:18.918Z,12.93
2019-02-17T18:56:51.383Z,10.73
2019-02-17T18:58:23.895Z,11.67
2019-02-17T18:59:56.318Z,12.77
2019-02-17T19:01:31.786Z,12.07
2019-02-17T19:03:04.272Z,13.33
2019-02-17T19:04:36.679Z,13.77
2019-02-17T19:06:09.181Z,12.73
2019-02-17T19:07:41.582Z,13.37
2019-02-17T19:09:14.171Z,11.77
2019-02-17T19:10:46.570Z,15.30
2019-02-17T19:12:31.386Z,14.07
2019-02-17T19:14:03.970Z,13.73
2019-02-17T19:15:54.880Z,10.73
2019-02-17T19:17:33.892Z,11.97
2019-02-17T19:19:04.532Z,11.90
2019-02-17T19:20:36.938Z,10.23
2019-02-17T19:22:09.343Z,8.40
2019-02-17T19:23:41.731Z,11.73
2019-02-17T19:25:14.072Z,7.20
2019-02-17T19:26:46.561Z,7.83
2019-02-17T19:28:19.026Z,9.80
2019-02-17T19:29:51.528Z,11.83
2019-02-17T19:31:24.047Z,16.20
2019-02-17T19:32:56.454Z,11.50
2019-02-17T19:34:28.885Z,8.73
2019-02-17T19:36:01.290Z,9.13
2019-02-17T19:37:33.843Z,13.87
2019-02-17T19:39:06.174Z,9.40
2019-02-17T19:40:38.590Z,9.77
2019-02-17T19:42:10.995Z,10.20
2019-02-17T19:43:43.336Z,9.53
2019-02-17T19:45:15.751Z,8.87
2019-02-17T19:46:48.251Z,13.10
2019-02-17T19:48:20.583Z,12.53
2019-02-17T19:49:53.018Z,9.27
2019-02-17T19:51:25.414Z,10.23
2019-02-17T19:52:57.755Z,7.80
2019-02-17T19:54:30.223Z,12.87
2019-02-17T19:56:02.651Z,8.50
2019-02-17T19:57:35.058Z,9.93
2019-02-17T19:59:07.469Z,11.33
2019-02-17T20:00:39.890Z,9.53
2019-02-17T20:02:12.317Z,10.37
2019-02-17T20:03:44.807Z,8.17
2019-02-17T20:05:17.321Z,8.53
2019-02-17T20:06:49.665Z,9.80
2019-02-17T20:08:22.065Z,12.97
2019-02-17T20:09:54.467Z,8.23
2019-02-17T20:11:26.840Z,10.07
2019-02-17T20:12:59.234Z,8.10
2019-02-17T20:14:31.885Z,13.37
2019-02-17T20:16:04.255Z,6.87
2019-02-17T20:17:36.743Z,9.73
2019-02-17T20:19:09.157Z,9.00
2019-02-17T20:20:41.571Z,10.63
2019-02-17T20:22:14.123Z,6.60
2019-02-17T20:23:46.523Z,9.17
2019-02-17T20:25:18.857Z,10.87
2019-02-17T20:26:51.259Z,7.50
2019-02-17T20:28:35.698Z,15.67
2019-02-17T20:29:57.657Z,10.10
2019-02-17T20:31:30.154Z,12.83